createdAt,value
2019-05-01T00:03:06.078Z,95.64
2019-05-01T00:08:06.296Z,96.37
2019-05-01T00:13:06.883Z,95.95
2019-05-01T00:18:06.089Z,96.35
2019-05-01T00:22:06.699Z,95.9
2019-05-01T00:27:05.865Z,95.79
2019-05-01T00:32:06.726Z,94.89
2019-05-01T00:37:06.852Z,93.81
2019-05-01T00:42:07.363Z,92.49
2019-05-01T00:47:06.098Z,85.76
2019-05-01T00:52:06.309Z,86.43
2019-05-01T00:56:06.809Z,88.56
2019-05-01T01:01:06.861Z,86.61
2019-05-01T01:06:08.606Z,87.89
2019-05-01T01:11:06.924Z,87.95
2019-05-01T01:16:06.745Z,91.44
2019-05-01T01:21:06.017Z,91.38
2019-05-01T01:26:07.256Z,92.31
2019-05-01T01:31:06.418Z,92.09
2019-05-01T01:35:07.306Z,91.44
2019-05-01T01:40:06.029Z,91.25
2019-05-01T01:45:07.637Z,92.13
2019-05-01T01:50:06.323Z,93.35
2019-05-01T01:55:07.596Z,96.44
2019-05-01T02:00:08.422Z,96.29
2019-05-01T02:49:06.994Z,100
2019-05-01T02:53:07.432Z,100
2019-05-01T02:58:07.565Z,100
2019-05-01T03:03:07.441Z,100
2019-05-01T03:08:07.506Z,100
2019-05-01T03:13:07.009Z,100
2019-05-01T03:18:07.107Z,100
2019-05-01T03:23:07.288Z,100
2019-05-01T03:28:07.507Z,100
2019-05-01T03:32:20.579Z,100
2019-05-01T03:37:07.743Z,100
2019-05-01T03:42:07.526Z,100
2019-05-01T03:47:07.619Z,100
2019-05-01T03:52:07.794Z,100
2019-05-01T03:57:07.036Z,100
2019-05-01T04:02:07.299Z,100
2019-05-01T04:06:07.611Z,100
2019-05-01T04:12:07.124Z,100
2019-05-01T04:16:07.687Z,100
2019-05-01T04:21:06.901Z,100
2019-05-01T04:26:06.424Z,100
2019-05-01T04:31:06.253Z,100
2019-05-01T04:36:06.489Z,100
2019-05-01T04:41:06.015Z,100
2019-05-01T04:46:06.318Z,100
2019-05-01T04:50:06.724Z,100
2019-05-01T04:55:05.936Z,100
2019-05-01T05:00:08.070Z,100
2019-05-01T05:05:06.409Z,100
2019-05-01T05:10:06.027Z,100
2019-05-01T05:15:07.600Z,100
2019-05-01T05:20:06.255Z,100
2019-05-01T05:24:06.620Z,100
2019-05-01T05:29:06.851Z,100
2019-05-01T05:34:06.761Z,100
2019-05-01T05:39:07.240Z,100
2019-05-01T05:44:06.407Z,100
2019-05-01T05:49:06.149Z,98.62
2019-05-01T05:54:06.374Z,96.53
2019-05-01T05:58:06.758Z,95.73
2019-05-01T06:03:06.400Z,96.32
2019-05-01T06:04:06.320Z,96.32
2019-05-01T06:08:06.649Z,97.05
2019-05-01T06:13:06.067Z,96.15
2019-05-01T06:18:06.256Z,97.2
2019-05-01T06:23:06.366Z,96.35
2019-05-01T06:28:06.409Z,95.88
2019-05-01T06:32:06.519Z,96
2019-05-01T06:37:07.108Z,93.8
2019-05-01T06:38:06.022Z,93.8
2019-05-01T06:42:09.739Z,92.64
2019-05-01T06:47:06.361Z,92.71
2019-05-01T06:52:06.555Z,90.88
2019-05-01T06:57:06.838Z,89.64
2019-05-01T07:02:06.277Z,89.28
2019-05-01T07:06:13.948Z,89.18
2019-05-01T07:11:06.110Z,88.03
2019-05-01T07:16:05.906Z,88.7
2019-05-01T07:21:06.095Z,90.04
2019-05-01T07:26:15.099Z,86.94
2019-05-01T07:31:07.182Z,89.52
2019-05-01T07:36:16.490Z,89.93
2019-05-01T07:40:07.451Z,87.56
2019-05-01T07:45:10.151Z,89.39
2019-05-01T07:50:07.312Z,89.54
2019-05-01T07:55:07.463Z,88.59
2019-05-01T08:00:09.278Z,87.35
2019-05-01T08:05:12.109Z,83.57
2019-05-01T08:10:06.574Z,81.75
2019-05-01T08:14:16.439Z,84.39
2019-05-01T08:19:07.223Z,80.92
2019-05-01T08:24:09.400Z,82.74
2019-05-01T08:29:08.754Z,84.6
2019-05-01T08:34:06.661Z,83.05
2019-05-01T08:39:13.856Z,87.68
2019-05-01T08:43:06.705Z,84.78
2019-05-01T08:48:06.587Z,81.96
2019-05-01T08:53:06.849Z,85.22
2019-05-01T08:58:15.903Z,83.73
2019-05-01T09:03:18.418Z,82.06
2019-05-01T09:08:07.339Z,81.66
2019-05-01T09:12:13.822Z,78.77
2019-05-01T09:17:07.155Z,77.26
2019-05-01T09:22:07.323Z,76.47
2019-05-01T09:27:07.507Z,75.47
2019-05-01T09:32:12.310Z,73.6
2019-05-01T09:37:07.457Z,74.68
2019-05-01T09:42:07.808Z,73.49
2019-05-01T09:47:07.391Z,74.97
2019-05-01T09:51:07.390Z,78.29
2019-05-01T09:56:09.499Z,77.94
2019-05-01T10:01:06.611Z,81.2
2019-05-01T10:06:06.728Z,79.28
2019-05-01T10:11:07.689Z,80.99
2019-05-01T10:16:07.395Z,80.38
2019-05-01T10:20:06.770Z,78.13
2019-05-01T10:25:13.560Z,75.9
2019-05-01T10:30:08.693Z,75.17
2019-05-01T10:35:07.474Z,72.31
2019-05-01T10:40:07.055Z,73.43
2019-05-01T10:45:08.860Z,73.24
2019-05-01T10:49:06.958Z,74.81
2019-05-01T10:54:07.226Z,76.41
2019-05-01T10:55:07.181Z,76.41
2019-05-01T10:59:07.469Z,77.54
2019-05-01T11:04:06.694Z,75.6
2019-05-01T11:09:07.223Z,76.37
2019-05-01T11:14:07.466Z,72.49
2019-05-01T11:19:06.963Z,69.93
2019-05-01T11:24:07.156Z,72.46
2019-05-01T11:28:08.362Z,70.82
2019-05-01T11:33:07.242Z,69.69
2019-05-01T11:38:07.452Z,70.08
2019-05-01T11:43:06.810Z,71.27
2019-05-01T11:48:06.699Z,71.6
2019-05-01T11:53:07.209Z,67.55
2019-05-01T11:58:07.405Z,67.94
2019-05-01T12:03:07.568Z,69.15
2019-05-01T12:07:06.863Z,67.94
2019-05-01T12:12:07.417Z,67.29
2019-05-01T12:17:07.154Z,64.71
2019-05-01T12:22:07.069Z,62.92
2019-05-01T12:27:07.587Z,64.92
2019-05-01T12:32:07.143Z,63
2019-05-01T12:37:07.625Z,62.36
2019-05-01T12:42:07.289Z,64
2019-05-01T12:46:06.905Z,60.42
2019-05-01T12:51:07.296Z,60.56
2019-05-01T12:56:07.178Z,62.16
2019-05-01T13:01:07.094Z,59.6
2019-05-01T13:06:07.227Z,61.01
2019-05-01T13:11:07.902Z,60.15
2019-05-01T13:16:07.141Z,58.14
2019-05-01T13:21:07.264Z,58.53
2019-05-01T13:25:07.550Z,61.51
2019-05-01T13:30:09.093Z,59.15
2019-05-01T13:35:07.835Z,59.05
2019-05-01T13:40:07.291Z,60.56
2019-05-01T13:45:09.060Z,61.19
2019-05-01T13:50:07.310Z,59.89
2019-05-01T13:55:07.420Z,60.5
2019-05-01T13:59:07.735Z,59.88
2019-05-01T14:04:07.435Z,60.61
2019-05-01T14:09:08.138Z,59.2
2019-05-01T14:14:07.407Z,58.96
2019-05-01T14:19:07.665Z,58.38
2019-05-01T14:24:07.800Z,58.65
2019-05-01T14:29:06.875Z,57.65
2019-05-01T14:34:06.675Z,55
2019-05-01T14:38:07.744Z,55.2
2019-05-01T14:43:07.863Z,55.67
2019-05-01T14:48:06.537Z,54.94
2019-05-01T14:53:06.996Z,54.55
2019-05-01T14:58:07.038Z,53.8
2019-05-01T15:03:07.304Z,53.6
2019-05-01T15:08:07.795Z,52.67
2019-05-01T15:13:07.239Z,53.01
2019-05-01T15:17:07.712Z,54.1
2019-05-01T15:22:07.400Z,53.66
2019-05-01T15:27:07.598Z,54.63
2019-05-01T15:32:07.320Z,55.18
2019-05-01T15:37:07.131Z,54.52
2019-05-01T15:42:06.725Z,54.76
2019-05-01T15:47:06.671Z,55.96
2019-05-01T15:51:07.308Z,54.73
2019-05-01T15:56:07.390Z,54.6
2019-05-01T16:01:07.395Z,54.43
2019-05-01T16:06:09.114Z,53.96
2019-05-01T16:11:06.914Z,55.06
2019-05-01T16:16:06.873Z,55.7
2019-05-01T16:21:07.156Z,53.86
2019-05-01T16:26:10.302Z,54.28
2019-05-01T16:30:08.274Z,56.75
2019-05-01T16:35:07.003Z,55.01
2019-05-01T16:40:07.670Z,54.41
2019-05-01T16:45:09.591Z,53.86
2019-05-01T16:50:07.317Z,54.75
2019-05-01T16:55:07.439Z,55.57
2019-05-01T17:00:08.894Z,56.73
2019-05-01T17:04:06.597Z,55.6
2019-05-01T17:09:07.513Z,57.98
2019-05-01T17:14:07.006Z,57.13
2019-05-01T17:19:06.895Z,57.46
2019-05-01T17:24:07.052Z,58.88
2019-05-01T17:29:07.280Z,60.2
2019-05-01T17:34:10.585Z,60.2
2019-05-01T17:38:07.285Z,61.72
2019-05-01T17:43:15.872Z,61.91
2019-05-01T17:48:07.050Z,62.87
2019-05-01T17:53:07.008Z,63.48
2019-05-01T17:58:07.170Z,63.2
2019-05-01T18:03:07.066Z,63.45
2019-05-01T18:08:07.145Z,65.95
2019-05-01T18:12:07.355Z,66.57
2019-05-01T18:17:07.512Z,67.73
2019-05-01T18:22:07.765Z,69.89
2019-05-01T18:27:06.564Z,70.34
2019-05-01T18:32:10.822Z,71.21
2019-05-01T18:37:06.585Z,71.56
2019-05-01T18:42:07.113Z,72.26
2019-05-01T18:46:08.918Z,72.78
2019-05-01T18:51:07.479Z,71.86
2019-05-01T18:56:08.054Z,73.22
2019-05-01T19:01:11.223Z,73.68
2019-05-01T19:06:07.738Z,75.29
2019-05-01T19:11:14.281Z,76.8
2019-05-01T19:16:10.642Z,77.13
2019-05-01T19:20:07.038Z,76.97
2019-05-01T19:25:15.923Z,78.17
2019-05-01T19:30:15.245Z,78.54
2019-05-01T19:35:06.806Z,76.2
2019-05-01T19:40:06.485Z,73.49
2019-05-01T19:45:10.886Z,72.09
2019-05-01T19:50:10.394Z,73.49
2019-05-01T19:54:07.945Z,78.63
2019-05-01T19:59:07.079Z,80.93
2019-05-01T20:04:16.671Z,82.99
2019-05-01T20:09:08.180Z,78.74
2019-05-01T20:14:07.484Z,73.28
2019-05-01T20:19:07.471Z,73.23
2019-05-01T20:24:11.290Z,77
2019-05-01T20:29:10.900Z,80.89
2019-05-01T20:33:09.345Z,82.11
2019-05-01T20:38:07.700Z,83.47
2019-05-01T20:43:08.776Z,82.92
2019-05-01T20:48:07.574Z,81.79
2019-05-01T20:53:07.011Z,81.57
2019-05-01T20:58:06.886Z,82.22
2019-05-01T21:03:09.137Z,82.31
2019-05-01T21:08:06.904Z,79.03
2019-05-01T21:12:06.983Z,77.16
2019-05-01T21:17:15.687Z,80.22
2019-05-01T21:22:06.880Z,82.61
2019-05-01T21:27:07.495Z,86.93
2019-05-01T21:32:07.389Z,87.69
2019-05-01T21:37:07.475Z,88.29
2019-05-01T21:41:07.963Z,88.17
2019-05-01T21:46:07.679Z,87.07
2019-05-01T21:51:08.475Z,89.52
2019-05-01T21:56:08.628Z,92.17
2019-05-01T22:01:07.675Z,92.84
2019-05-01T22:06:17.107Z,93.63
2019-05-01T22:11:07.793Z,94.69
2019-05-01T22:15:13.093Z,94.68
2019-05-01T22:20:07.978Z,94.32
2019-05-01T22:25:07.166Z,94.85
2019-05-01T22:30:10.705Z,95.57
2019-05-01T22:35:07.711Z,98.85
2019-05-01T22:40:07.225Z,99.84
2019-05-01T22:45:08.821Z,99.12
2019-05-01T22:50:07.327Z,98.79
2019-05-01T22:55:07.382Z,98.28
2019-05-01T22:59:07.812Z,98.48
2019-05-01T23:04:07.339Z,99.04
2019-05-01T23:09:08.092Z,100
2019-05-01T23:14:07.282Z,100
2019-05-01T23:19:07.008Z,99.84
2019-05-01T23:24:07.192Z,100
2019-05-01T23:29:07.423Z,100
2019-05-01T23:34:07.280Z,99.46
2019-05-01T23:38:07.621Z,98.74
2019-05-01T23:43:07.185Z,99.53
2019-05-01T23:48:07.006Z,99.59
2019-05-01T23:53:15.602Z,99.5
2019-05-01T23:58:07.863Z,99.88
